Time;durP1;ratioP1;P1;durP2;ratioP2;P2;SDS_P1;SDS_P2;PMS_P1;PMS_P2;Temp;Humidity;BMP_temperature;BMP_pressure;BME280_temperature;BME280_humidity;BME280_pressure;Samples;Min_cycle;Max_cycle;Signal;HPM_P1;HPM_P2
2022/01/05 00:00:34;;;;;;;1.7;1.6;;;;;;;;;;;;;
2022/01/05 00:02:59;;;;;;;1.6;1.5;;;;;;;;;;;;;
2022/01/05 00:05:24;;;;;;;1.4;1.3;;;;;;;;;;;;;
2022/01/05 00:07:50;;;;;;;1.7;1.6;;;;;;;;;;;;;
2022/01/05 00:10:15;;;;;;;1.4;1.3;;;;;;;;;;;;;
2022/01/05 00:12:40;;;;;;;1.3;1.2;;;;;;;;;;;;;
2022/01/05 00:15:05;;;;;;;1.4;1.2;;;;;;;;;;;;;
2022/01/05 00:17:33;;;;;;;1.5;1.4;;;;;;;;;;;;;
2022/01/05 00:19:58;;;;;;;1.3;1.2;;;;;;;;;;;;;
2022/01/05 00:22:23;;;;;;;1.3;1.2;;;;;;;;;;;;;
2022/01/05 00:24:48;;;;;;;1.3;1.2;;;;;;;;;;;;;
2022/01/05 00:27:15;;;;;;;1.2;1.1;;;;;;;;;;;;;
2022/01/05 00:29:40;;;;;;;1.4;1.3;;;;;;;;;;;;;
2022/01/05 00:32:06;;;;;;;1.3;1.1;;;;;;;;;;;;;
2022/01/05 00:34:31;;;;;;;1.3;1.2;;;;;;;;;;;;;
2022/01/05 00:36:57;;;;;;;1.5;1.4;;;;;;;;;;;;;
2022/01/05 00:39:22;;;;;;;1.5;1.4;;;;;;;;;;;;;
2022/01/05 00:41:48;;;;;;;1.6;1.5;;;;;;;;;;;;;
2022/01/05 00:44:13;;;;;;;1.7;1.6;;;;;;;;;;;;;
2022/01/05 00:46:39;;;;;;;1.4;1.3;;;;;;;;;;;;;
2022/01/05 00:49:04;;;;;;;1.8;1.7;;;;;;;;;;;;;
2022/01/05 00:51:30;;;;;;;1.5;1.4;;;;;;;;;;;;;
2022/01/05 00:53:55;;;;;;;1.8;1.4;;;;;;;;;;;;;
2022/01/05 00:56:21;;;;;;;2;1.5;;;;;;;;;;;;;
2022/01/05 00:58:46;;;;;;;1.5;1.4;;;;;;;;;;;;;
2022/01/05 01:01:12;;;;;;;3.1;1.6;;;;;;;;;;;;;
2022/01/05 01:03:39;;;;;;;2.1;1.7;;;;;;;;;;;;;
2022/01/05 01:06:03;;;;;;;1.6;1.5;;;;;;;;;;;;;
2022/01/05 01:08:28;;;;;;;1.6;1.5;;;;;;;;;;;;;
2022/01/05 01:10:53;;;;;;;1.8;1.7;;;;;;;;;;;;;
2022/01/05 01:13:18;;;;;;;2;1.8;;;;;;;;;;;;;
2022/01/05 01:15:43;;;;;;;2;1.8;;;;;;;;;;;;;
2022/01/05 01:18:10;;;;;;;1.7;1.6;;;;;;;;;;;;;
2022/01/05 01:20:35;;;;;;;3.2;1.8;;;;;;;;;;;;;
2022/01/05 01:23:00;;;;;;;1.7;1.6;;;;;;;;;;;;;
2022/01/05 01:25:25;;;;;;;2.1;1.7;;;;;;;;;;;;;
2022/01/05 01:27:51;;;;;;;1.4;1.3;;;;;;;;;;;;;
2022/01/05 01:30:16;;;;;;;1.2;1.1;;;;;;;;;;;;;
2022/01/05 01:32:42;;;;;;;1.7;1.1;;;;;;;;;;;;;
2022/01/05 01:35:07;;;;;;;1.1;1;;;;;;;;;;;;;
2022/01/05 01:37:33;;;;;;;0.8;0.8;;;;;;;;;;;;;
2022/01/05 01:39:59;;;;;;;0.9;0.9;;;;;;;;;;;;;
2022/01/05 01:42:24;;;;;;;1.1;1;;;;;;;;;;;;;
2022/01/05 01:44:50;;;;;;;0.8;0.8;;;;;;;;;;;;;
2022/01/05 01:47:15;;;;;;;0.8;0.8;;;;;;;;;;;;;
2022/01/05 01:49:42;;;;;;;0.8;0.8;;;;;;;;;;;;;
2022/01/05 01:52:07;;;;;;;0.9;0.9;;;;;;;;;;;;;
2022/01/05 01:54:35;;;;;;;0.9;0.9;;;;;;;;;;;;;
2022/01/05 01:56:57;;;;;;;1;0.8;;;;;;;;;;;;;
2022/01/05 01:59:24;;;;;;;0.7;0.7;;;;;;;;;;;;;
2022/01/05 02:01:49;;;;;;;0.6;0.6;;;;;;;;;;;;;
2022/01/05 02:04:14;;;;;;;0.6;0.6;;;;;;;;;;;;;
2022/01/05 02:06:39;;;;;;;0.5;0.5;;;;;;;;;;;;;
2022/01/05 02:09:07;;;;;;;0.5;0.5;;;;;;;;;;;;;
2022/01/05 02:11:31;;;;;;;0.4;0.4;;;;;;;;;;;;;
2022/01/05 02:13:58;;;;;;;0.4;0.4;;;;;;;;;;;;;
2022/01/05 02:16:29;;;;;;;0.3;0.3;;;;;;;;;;;;;
2022/01/05 02:19:01;;;;;;;0.3;0.3;;;;;;;;;;;;;
2022/01/05 02:21:14;;;;;;;0.3;0.3;;;;;;;;;;;;;
2022/01/05 02:23:39;;;;;;;0.2;0.2;;;;;;;;;;;;;
2022/01/05 02:26:04;;;;;;;0.3;0.3;;;;;;;;;;;;;
2022/01/05 02:28:30;;;;;;;0.7;0.3;;;;;;;;;;;;;
2022/01/05 02:30:56;;;;;;;0.2;0.2;;;;;;;;;;;;;
2022/01/05 02:33:21;;;;;;;0.2;0.2;;;;;;;;;;;;;
2022/01/05 02:35:46;;;;;;;0.2;0.2;;;;;;;;;;;;;
2022/01/05 02:38:12;;;;;;;0.2;0.2;;;;;;;;;;;;;
2022/01/05 02:40:37;;;;;;;0.2;0.2;;;;;;;;;;;;;
2022/01/05 02:43:04;;;;;;;0.1;0.1;;;;;;;;;;;;;
2022/01/05 02:45:29;;;;;;;0.1;0.1;;;;;;;;;;;;;
2022/01/05 02:47:55;;;;;;;0.3;0.1;;;;;;;;;;;;;
2022/01/05 02:50:20;;;;;;;0.2;0.2;;;;;;;;;;;;;
2022/01/05 02:52:46;;;;;;;0.1;0.1;;;;;;;;;;;;;
2022/01/05 02:55:12;;;;;;;0.1;0.1;;;;;;;;;;;;;
2022/01/05 02:57:37;;;;;;;0.1;0.1;;;;;;;;;;;;;
2022/01/05 03:00:02;;;;;;;0.1;0.1;;;;;;;;;;;;;
2022/01/05 03:02:28;;;;;;;0.1;0.1;;;;;;;;;;;;;
2022/01/05 03:04:53;;;;;;;0.1;0.1;;;;;;;;;;;;;
2022/01/05 03:07:19;;;;;;;0.1;0.1;;;;;;;;;;;;;
2022/01/05 03:09:44;;;;;;;0.1;0.1;;;;;;;;;;;;;
2022/01/05 03:12:10;;;;;;;0.2;0.1;;;;;;;;;;;;;
2022/01/05 03:14:35;;;;;;;0.1;0.1;;;;;;;;;;;;;
2022/01/05 03:17:02;;;;;;;0.1;0.1;;;;;;;;;;;;;
2022/01/05 03:19:27;;;;;;;0.1;0.1;;;;;;;;;;;;;
2022/01/05 03:21:54;;;;;;;0.2;0.1;;;;;;;;;;;;;
2022/01/05 03:24:19;;;;;;;0.1;0.1;;;;;;;;;;;;;
2022/01/05 03:26:44;;;;;;;0.1;0.1;;;;;;;;;;;;;
2022/01/05 03:29:09;;;;;;;0.2;0.2;;;;;;;;;;;;;
2022/01/05 03:31:34;;;;;;;0.1;0.1;;;;;;;;;;;;;
2022/01/05 03:33:59;;;;;;;0.1;0.1;;;;;;;;;;;;;
2022/01/05 03:36:25;;;;;;;0.2;0.2;;;;;;;;;;;;;
2022/01/05 03:38:51;;;;;;;0.6;0.1;;;;;;;;;;;;;
2022/01/05 03:41:17;;;;;;;0.1;0.1;;;;;;;;;;;;;
2022/01/05 03:43:42;;;;;;;0;0;;;;;;;;;;;;;
2022/01/05 03:46:08;;;;;;;0.1;0.1;;;;;;;;;;;;;
2022/01/05 03:48:33;;;;;;;0.1;0.1;;;;;;;;;;;;;
2022/01/05 03:50:59;;;;;;;0.4;0.1;;;;;;;;;;;;;
2022/01/05 03:53:24;;;;;;;0.6;0.2;;;;;;;;;;;;;
2022/01/05 03:55:50;;;;;;;1.4;0.4;;;;;;;;;;;;;
2022/01/05 03:58:15;;;;;;;0.1;0.1;;;;;;;;;;;;;
2022/01/05 04:02:31;;;;;;;0.3;0.2;;;;;;;4.45;91.48438;924.3986;;;;
2022/01/05 04:04:56;;;;;;;0.8;0.3;;;;;;;4.21;91.55762;924.4133;;;;
2022/01/05 04:07:25;;;;;;;0.2;0.2;;;;;;;4.19;92.24023;924.438;;;;
2022/01/05 04:09:50;;;;;;;5.1;3.8;;;;;;;4.31;92.28613;924.4411;;;;
2022/01/05 04:12:20;;;;;;;1.1;1;;;;;;;4.12;92.17969;924.3884;;;;
2022/01/05 04:14:45;;;;;;;0.1;0.1;;;;;;;3.79;92.10742;924.3809;;;;
2022/01/05 04:17:10;;;;;;;0.2;0.2;;;;;;;3.77;92.81348;924.2367;;;;
2022/01/05 04:19:40;;;;;;;0.2;0.2;;;;;;;3.71;93.68555;924.3406;;;;
2022/01/05 04:22:05;;;;;;;0.2;0.2;;;;;;;3.77;93.99219;924.2816;;;;
2022/01/05 04:24:35;;;;;;;0.1;0.1;;;;;;;3.99;92.99414;924.1606;;;;
2022/01/05 04:27:00;;;;;;;0.5;0.2;;;;;;;4;92.53516;924.1813;;;;
2022/01/05 04:29:29;;;;;;;0.3;0.3;;;;;;;3.96;92.59473;924.1934;;;;
2022/01/05 04:31:54;;;;;;;0.7;0.3;;;;;;;4.17;92.72949;924.1384;;;;
2022/01/05 04:34:23;;;;;;;0.5;0.3;;;;;;;4.19;92.19336;924.1662;;;;
2022/01/05 04:36:48;;;;;;;1.8;0.8;;;;;;;4.02;92.25977;924.2236;;;;
2022/01/05 04:39:16;;;;;;;0.5;0.4;;;;;;;3.96;92.51563;924.2178;;;;
2022/01/05 04:41:42;;;;;;;0.4;0.4;;;;;;;4.09;92.47754;924.3086;;;;
2022/01/05 04:44:11;;;;;;;0.2;0.2;;;;;;;4.24;92.33984;924.2505;;;;
2022/01/05 04:46:36;;;;;;;0.5;0.4;;;;;;;4.3;91.05957;924.2622;;;;
2022/01/05 04:49:05;;;;;;;0.8;0.4;;;;;;;4.37;91.59277;924.2581;;;;
2022/01/05 04:51:30;;;;;;;0.5;0.4;;;;;;;4.42;91.21973;924.2605;;;;
2022/01/05 04:54:01;;;;;;;0.5;0.5;;;;;;;4.42;90.75879;924.2322;;;;
2022/01/05 04:56:26;;;;;;;0.8;0.8;;;;;;;4.32;90.48926;924.2781;;;;
2022/01/05 04:58:51;;;;;;;0.3;0.3;;;;;;;4.18;90.99902;924.2764;;;;
2022/01/05 05:01:16;;;;;;;0.3;0.3;;;;;;;4.21;91.26563;924.3275;;;;
2022/01/05 05:03:45;;;;;;;0.3;0.3;;;;;;;4.1;91.3418;924.2763;;;;
2022/01/05 05:06:10;;;;;;;0.4;0.4;;;;;;;3.93;91.55371;924.2112;;;;
2022/01/05 05:08:37;;;;;;;0.4;0.4;;;;;;;3.67;92.82324;924.2629;;;;
2022/01/05 05:11:04;;;;;;;0.5;0.5;;;;;;;3.69;93.34473;924.312;;;;
2022/01/05 05:13:31;;;;;;;1.1;0.5;;;;;;;3.81;92.87598;924.2949;;;;
2022/01/05 05:15:59;;;;;;;0.2;0.2;;;;;;;3.74;92.6123;924.3645;;;;
2022/01/05 05:18:26;;;;;;;0.3;0.3;;;;;;;3.66;92.70703;924.3628;;;;
2022/01/05 05:20:51;;;;;;;0.2;0.2;;;;;;;3.58;92.61328;924.3536;;;;
2022/01/05 05:23:18;;;;;;;0.3;0.3;;;;;;;3.66;92.41699;924.2346;;;;
2022/01/05 05:25:43;;;;;;;16.1;8.2;;;;;;;3.8;92.30273;924.3098;;;;
2022/01/05 05:28:11;;;;;;;0.7;0.7;;;;;;;3.81;91.7627;924.2413;;;;
2022/01/05 05:30:37;;;;;;;0.4;0.4;;;;;;;3.75;91.42773;924.2522;;;;
2022/01/05 05:33:03;;;;;;;0.7;0.5;;;;;;;3.69;92.14258;924.3459;;;;
2022/01/05 05:35:28;;;;;;;0.7;0.7;;;;;;;3.81;91.66211;924.3295;;;;
2022/01/05 05:37:55;;;;;;;1;0.9;;;;;;;3.74;91.5;924.3834;;;;
2022/01/05 05:40:20;;;;;;;0.5;0.5;;;;;;;3.71;91.57324;924.4005;;;;
2022/01/05 05:42:47;;;;;;;1.1;0.6;;;;;;;3.8;92.16602;924.433;;;;
2022/01/05 05:45:12;;;;;;;1.6;1;;;;;;;3.76;92.12402;924.5411;;;;
2022/01/05 05:47:38;;;;;;;0.6;0.6;;;;;;;3.57;92.12793;924.5078;;;;
2022/01/05 05:50:04;;;;;;;1.5;0.6;;;;;;;3.67;92.7334;924.4205;;;;
2022/01/05 05:52:31;;;;;;;0.6;0.5;;;;;;;3.83;91.80273;924.4518;;;;
2022/01/05 05:54:56;;;;;;;1.1;0.7;;;;;;;3.8;90.85254;924.4279;;;;
2022/01/05 05:57:24;;;;;;;1.2;0.8;;;;;;;3.8;91.20996;924.4244;;;;
2022/01/05 05:59:49;;;;;;;3.8;3.2;;;;;;;3.82;91.29297;924.476;;;;
2022/01/05 06:02:16;;;;;;;1.9;1.2;;;;;;;3.58;91.33203;924.4395;;;;
2022/01/05 06:04:41;;;;;;;1.5;1.4;;;;;;;3.4;92.58496;924.4597;;;;
2022/01/05 06:07:07;;;;;;;1.6;1.5;;;;;;;3.33;92.99805;924.4941;;;;
2022/01/05 06:09:33;;;;;;;2;1.8;;;;;;;3.38;93.25488;924.5514;;;;
2022/01/05 06:12:01;;;;;;;2.1;1.9;;;;;;;3.5;92.80859;924.5447;;;;
2022/01/05 06:14:26;;;;;;;3;2.2;;;;;;;3.61;92.75586;924.5614;;;;
2022/01/05 06:16:56;;;;;;;3.3;2.3;;;;;;;3.55;92.32422;924.5893;;;;
2022/01/05 06:19:25;;;;;;;2.8;2.2;;;;;;;3.52;92.54297;924.5835;;;;
2022/01/05 06:21:50;;;;;;;3.1;2.5;;;;;;;3.57;92.51953;924.5817;;;;
2022/01/05 06:24:17;;;;;;;4.1;3.1;;;;;;;3.64;92.48047;924.579;;;;
2022/01/05 06:26:42;;;;;;;3.1;2.6;;;;;;;3.72;92.38379;924.6367;;;;
2022/01/05 06:29:09;;;;;;;3.4;2.8;;;;;;;3.69;92.26563;924.6253;;;;
2022/01/05 06:31:33;;;;;;;3.6;3.1;;;;;;;3.66;92.65137;924.4966;;;;
2022/01/05 06:34:00;;;;;;;3.7;2.9;;;;;;;3.74;92.33398;924.5528;;;;
2022/01/05 06:36:25;;;;;;;3.1;2.8;;;;;;;3.66;92.30469;924.6226;;;;
2022/01/05 06:38:52;;;;;;;5.2;3.1;;;;;;;3.81;91.71777;924.6625;;;;
2022/01/05 06:41:17;;;;;;;2.5;2.2;;;;;;;3.79;92.22168;924.7203;;;;
2022/01/05 06:43:50;;;;;;;2.8;1.8;;;;;;;3.83;92.06055;924.7186;;;;
2022/01/05 06:46:18;;;;;;;2.2;1.5;;;;;;;3.7;92.44727;924.734;;;;
2022/01/05 06:48:43;;;;;;;2.2;1.5;;;;;;;3.65;92.4375;924.6783;;;;
2022/01/05 06:51:08;;;;;;;3.8;2;;;;;;;3.47;93.19629;924.7;;;;
2022/01/05 06:53:33;;;;;;;3.8;2.6;;;;;;;3.44;93.37891;924.6603;;;;
2022/01/05 06:56:02;;;;;;;4;2.6;;;;;;;3.61;93.42773;924.7124;;;;
2022/01/05 06:58:27;;;;;;;4.2;3.3;;;;;;;3.65;93.57227;924.6578;;;;
2022/01/05 07:00:55;;;;;;;5.4;3.5;;;;;;;3.66;92.93359;924.6832;;;;
2022/01/05 07:03:30;;;;;;;6.2;3.6;;;;;;;3.67;93.4082;924.651;;;;
2022/01/05 07:06:02;;;;;;;7;3.4;;;;;;;3.66;93.29395;924.7769;;;;
2022/01/05 07:08:27;;;;;;;5.2;3.6;;;;;;;3.66;93.56348;924.7587;;;;
2022/01/05 07:10:56;;;;;;;3.8;3.3;;;;;;;3.6;93.91113;924.7081;;;;
2022/01/05 07:13:22;;;;;;;4.5;2.6;;;;;;;3.65;94.01074;924.7665;;;;
2022/01/05 07:15:47;;;;;;;2.7;2.1;;;;;;;3.69;93.7832;924.7946;;;;
2022/01/05 07:18:14;;;;;;;3.1;2.2;;;;;;;3.77;93.95605;924.7837;;;;
2022/01/05 07:20:39;;;;;;;4.7;2.5;;;;;;;3.8;93.50488;924.7747;;;;
2022/01/05 07:23:08;;;;;;;3.1;2.6;;;;;;;3.91;92.875;924.6763;;;;
2022/01/05 07:25:33;;;;;;;4.3;2.7;;;;;;;3.9;92.1084;924.7431;;;;
2022/01/05 07:28:00;;;;;;;4.7;2.8;;;;;;;3.95;92.82813;924.8311;;;;
2022/01/05 07:30:25;;;;;;;4;2.4;;;;;;;3.9;93.04395;924.8211;;;;
2022/01/05 07:32:52;;;;;;;3.4;3;;;;;;;3.97;93.68652;924.8376;;;;
2022/01/05 07:35:18;;;;;;;5.6;4.2;;;;;;;3.92;93.98047;924.8796;;;;
2022/01/05 07:37:44;;;;;;;6.2;4.6;;;;;;;4.02;93.40625;924.8583;;;;
2022/01/05 07:40:09;;;;;;;3.9;3.3;;;;;;;4.05;92.97168;924.8869;;;;
2022/01/05 07:42:35;;;;;;;4;3.4;;;;;;;4.07;92.53906;924.8935;;;;
2022/01/05 07:45:00;;;;;;;3.7;3;;;;;;;4.14;91.79004;924.9895;;;;
2022/01/05 07:47:26;;;;;;;3.4;3.1;;;;;;;4.09;92.2959;924.9654;;;;
2022/01/05 07:49:51;;;;;;;4.5;3.5;;;;;;;4.04;92.4209;925.1136;;;;
2022/01/05 07:52:16;;;;;;;6.5;4;;;;;;;4.04;92.18457;925.1443;;;;
2022/01/05 07:54:43;;;;;;;5;3.6;;;;;;;4.1;92.05176;925.2317;;;;
2022/01/05 07:57:08;;;;;;;5.4;3.9;;;;;;;4.2;91.56738;925.2865;;;;
2022/01/05 07:59:36;;;;;;;6.9;5.9;;;;;;;4.19;91.58789;925.3517;;;;
2022/01/05 08:02:02;;;;;;;7.3;6.4;;;;;;;4.16;92.35645;925.2749;;;;
2022/01/05 08:04:29;;;;;;;9.7;6.2;;;;;;;4.23;92.79004;925.3872;;;;
2022/01/05 08:06:54;;;;;;;4.8;3.9;;;;;;;4.33;92.85254;925.445;;;;
2022/01/05 08:09:23;;;;;;;5.2;4.4;;;;;;;4.24;92.23926;925.4526;;;;
2022/01/05 08:11:53;;;;;;;6.8;5.4;;;;;;;4.17;92.68457;925.6437;;;;
2022/01/05 08:14:18;;;;;;;8;5.2;;;;;;;4.15;93.52441;925.6663;;;;
2022/01/05 08:16:45;;;;;;;5.9;5.1;;;;;;;4.26;93.37891;925.6294;;;;
2022/01/05 08:19:10;;;;;;;5.8;4.8;;;;;;;4.36;92.96191;925.5912;;;;
2022/01/05 08:21:37;;;;;;;5.4;3.8;;;;;;;4.35;92.06152;925.588;;;;
2022/01/05 08:24:02;;;;;;;5.6;4.5;;;;;;;4.39;92.26074;925.6389;;;;
2022/01/05 08:26:29;;;;;;;4.7;4.1;;;;;;;4.51;92.10645;925.7399;;;;
2022/01/05 08:28:55;;;;;;;5.3;4.4;;;;;;;4.59;91.52734;925.7651;;;;
2022/01/05 08:31:21;;;;;;;4.1;3.7;;;;;;;4.62;90.77832;925.824;;;;
2022/01/05 08:33:46;;;;;;;4.8;4.1;;;;;;;4.64;90.63574;925.7896;;;;
2022/01/05 08:36:14;;;;;;;7.1;5.4;;;;;;;4.68;90.29395;925.8815;;;;
2022/01/05 08:38:39;;;;;;;9.4;6.8;;;;;;;4.72;90.57422;925.8953;;;;
2022/01/05 08:41:09;;;;;;;13.2;8.8;;;;;;;4.64;91.87402;925.9023;;;;
2022/01/05 08:43:34;;;;;;;12.7;7.6;;;;;;;4.66;91.76563;925.9191;;;;
2022/01/05 08:46:03;;;;;;;7;5.2;;;;;;;4.62;91.84766;925.9305;;;;
2022/01/05 08:48:28;;;;;;;8.9;5.6;;;;;;;4.76;91.84375;925.9241;;;;
2022/01/05 08:50:57;;;;;;;5.6;4.8;;;;;;;4.89;91.24121;925.9487;;;;
2022/01/05 08:53:25;;;;;;;5.5;4.5;;;;;;;5.01;90.39844;925.8918;;;;
2022/01/05 08:55:53;;;;;;;4.9;3.9;;;;;;;5.07;89.93848;925.969;;;;
2022/01/05 08:58:18;;;;;;;3.3;3;;;;;;;5.17;89.26074;926.0567;;;;
2022/01/05 09:00:44;;;;;;;3.5;3.2;;;;;;;5.24;88.88086;926.1769;;;;
2022/01/05 09:03:09;;;;;;;3.7;3.4;;;;;;;5.11;88.3584;926.1785;;;;
2022/01/05 09:05:36;;;;;;;5;4.2;;;;;;;5.08;88.66699;926.25;;;;
2022/01/05 09:08:01;;;;;;;4.3;3.9;;;;;;;5.14;88.8584;926.174;;;;
2022/01/05 09:10:29;;;;;;;4.8;4.3;;;;;;;4.83;89.76367;926.1373;;;;
2022/01/05 09:12:56;;;;;;;5.7;4.9;;;;;;;4.89;90.49805;926.2019;;;;
2022/01/05 09:15:25;;;;;;;4.8;4;;;;;;;4.94;90.7793;926.2615;;;;
2022/01/05 09:17:50;;;;;;;4.9;3.6;;;;;;;4.84;90.68945;926.1839;;;;
2022/01/05 09:20:19;;;;;;;3.3;3;;;;;;;4.93;91.0918;926.2062;;;;
2022/01/05 09:22:48;;;;;;;3.9;2.5;;;;;;;4.83;90.7998;926.4346;;;;
2022/01/05 09:25:14;;;;;;;5.7;3.6;;;;;;;4.99;90.00977;926.4419;;;;
2022/01/05 09:27:38;;;;;;;2.8;2.4;;;;;;;5.11;89.28125;926.4316;;;;
2022/01/05 09:30:05;;;;;;;2.6;2.2;;;;;;;5.18;89.4668;926.5208;;;;
2022/01/05 09:32:36;;;;;;;2.6;1.9;;;;;;;5.16;89.29199;926.4874;;;;
2022/01/05 09:34:55;;;;;;;3.5;2.5;;;;;;;5.09;89.59277;926.4182;;;;
2022/01/05 09:37:24;;;;;;;2.6;1.6;;;;;;;4.64;90.36719;926.5449;;;;
2022/01/05 09:42:14;;;;;;;1.2;1.1;;;;;;;4.47;92.62793;926.5795;;;;
2022/01/05 09:44:38;;;;;;;2.1;1.4;;;;;;;4.67;91.84863;926.5838;;;;
2022/01/05 09:47:04;;;;;;;1;0.9;;;;;;;4.52;91.18457;926.6172;;;;
2022/01/05 09:49:30;;;;;;;0.7;0.7;;;;;;;4.34;91.59668;926.6523;;;;
2022/01/05 09:51:56;;;;;;;0.6;0.6;;;;;;;4.22;91.54688;926.5403;;;;
2022/01/05 09:54:21;;;;;;;1.3;1.1;;;;;;;4.02;92.26855;926.6663;;;;
2022/01/05 09:56:47;;;;;;;2.6;1.6;;;;;;;3.76;94.02344;926.6878;;;;
2022/01/05 09:59:12;;;;;;;2.1;1.9;;;;;;;3.55;95.53906;926.7983;;;;
2022/01/05 10:01:42;;;;;;;1.7;0.9;;;;;;;3.89;94.77051;926.7161;;;;
2022/01/05 10:04:11;;;;;;;0.7;0.7;;;;;;;4.09;93.8252;926.6192;;;;
2022/01/05 10:06:37;;;;;;;0.8;0.8;;;;;;;4.24;92.7793;926.7566;;;;
2022/01/05 10:09:05;;;;;;;0.6;0.5;;;;;;;4.21;92.54785;926.8074;;;;
2022/01/05 10:11:30;;;;;;;1.8;1.4;;;;;;;4.03;93.87109;926.8438;;;;
2022/01/05 10:13:55;;;;;;;0.5;0.5;;;;;;;3.97;93.58594;926.815;;;;
2022/01/05 10:16:22;;;;;;;0.7;0.7;;;;;;;3.98;93.39844;926.7986;;;;
2022/01/05 10:18:47;;;;;;;0.4;0.4;;;;;;;4.19;93.34082;926.8098;;;;
2022/01/05 10:21:17;;;;;;;0.4;0.4;;;;;;;4.37;92.38965;926.7827;;;;
2022/01/05 10:23:48;;;;;;;0.8;0.5;;;;;;;4.15;92.73438;926.8628;;;;
2022/01/05 10:26:18;;;;;;;1.2;0.4;;;;;;;4.35;92.37695;926.8582;;;;
2022/01/05 10:28:48;;;;;;;0.6;0.6;;;;;;;4.38;92.07715;926.9325;;;;
2022/01/05 10:31:13;;;;;;;0.8;0.6;;;;;;;4.37;91.84082;926.8994;;;;
2022/01/05 10:33:44;;;;;;;0.5;0.5;;;;;;;4.41;90.65527;927.0341;;;;
2022/01/05 10:36:09;;;;;;;0.7;0.7;;;;;;;4.18;91.70996;927.106;;;;
2022/01/05 10:38:36;;;;;;;1.5;1.1;;;;;;;4.22;92.37012;927.1714;;;;
2022/01/05 10:41:01;;;;;;;0.8;0.8;;;;;;;4.27;92.3457;927.217;;;;
2022/01/05 10:43:29;;;;;;;0.7;0.5;;;;;;;3.93;92.13867;927.3293;;;;
2022/01/05 10:45:57;;;;;;;0.5;0.5;;;;;;;3.88;91.8125;927.389;;;;
2022/01/05 10:48:24;;;;;;;0.6;0.5;;;;;;;3.98;91.31641;927.4813;;;;
2022/01/05 10:50:47;;;;;;;1.2;1.1;;;;;;;3.64;91.6582;927.4989;;;;
2022/01/05 10:53:13;;;;;;;1.2;1.1;;;;;;;3.47;91.91504;927.5514;;;;
2022/01/05 10:55:39;;;;;;;3;1.4;;;;;;;3.48;93.2207;927.5832;;;;
2022/01/05 10:58:04;;;;;;;0.9;0.9;;;;;;;3.57;92.31738;927.6492;;;;
2022/01/05 11:00:34;;;;;;;1;0.6;;;;;;;3.72;91.16992;927.6735;;;;
2022/01/05 11:02:59;;;;;;;0.6;0.6;;;;;;;3.63;90.79102;927.7277;;;;
2022/01/05 11:05:24;;;;;;;2.6;0.7;;;;;;;3.59;90.92969;927.8015;;;;
2022/01/05 11:07:53;;;;;;;0.8;0.7;;;;;;;3.63;90.55762;927.8467;;;;
2022/01/05 11:10:18;;;;;;;1.1;0.9;;;;;;;3.42;91.84766;927.9565;;;;
2022/01/05 11:12:47;;;;;;;1;0.8;;;;;;;3.53;92.11816;927.9994;;;;
2022/01/05 11:15:12;;;;;;;0.6;0.6;;;;;;;3.61;91.7666;927.9581;;;;
2022/01/05 11:17:42;;;;;;;0.7;0.7;;;;;;;3.55;91.66309;927.97;;;;
2022/01/05 11:20:15;;;;;;;1.9;0.9;;;;;;;3.53;91.41016;928.0231;;;;
2022/01/05 11:22:45;;;;;;;0.7;0.7;;;;;;;3.45;91.84277;928.1387;;;;
2022/01/05 11:25:10;;;;;;;0.7;0.7;;;;;;;3.39;91.78613;928.2491;;;;
2022/01/05 11:27:39;;;;;;;0.8;0.8;;;;;;;3.55;91.12402;928.2029;;;;
2022/01/05 11:30:04;;;;;;;0.9;0.9;;;;;;;3.13;93.23535;928.2853;;;;
2022/01/05 11:32:31;;;;;;;2;1.1;;;;;;;3.19;93.25781;928.2999;;;;
2022/01/05 11:34:55;;;;;;;0.9;0.9;;;;;;;3.24;92.71973;928.3028;;;;
2022/01/05 11:37:21;;;;;;;1.2;1.1;;;;;;;2.92;94.04004;928.3245;;;;
2022/01/05 11:39:46;;;;;;;1.2;1;;;;;;;2.97;94.38672;928.3192;;;;
2022/01/05 11:42:13;;;;;;;0.8;0.8;;;;;;;3.08;94.33398;928.307;;;;
2022/01/05 11:44:37;;;;;;;1.3;1.1;;;;;;;2.91;94.60938;928.2481;;;;
2022/01/05 11:47:06;;;;;;;0.7;0.7;;;;;;;3.29;93.95313;928.3298;;;;
2022/01/05 11:49:31;;;;;;;1;0.9;;;;;;;3.51;92.53027;928.2415;;;;
2022/01/05 11:51:58;;;;;;;0.7;0.7;;;;;;;3.59;91.18652;928.3516;;;;
2022/01/05 11:54:22;;;;;;;0.6;0.5;;;;;;;3.76;90.66309;928.3906;;;;
2022/01/05 11:56:49;;;;;;;0.5;0.5;;;;;;;3.81;89.14551;928.3753;;;;
2022/01/05 11:59:13;;;;;;;0.6;0.6;;;;;;;3.64;89.88477;928.3198;;;;
2022/01/05 12:01:43;;;;;;;0.8;0.8;;;;;;;3.38;90.22266;928.3474;;;;
2022/01/05 12:04:09;;;;;;;1.2;1;;;;;;;3.46;90.2627;928.4074;;;;
2022/01/05 12:06:33;;;;;;;0.7;0.7;;;;;;;3.34;91.05566;928.4905;;;;
2022/01/05 12:09:02;;;;;;;0.6;0.6;;;;;;;3.32;91.39063;928.494;;;;
2022/01/05 12:11:28;;;;;;;1;0.9;;;;;;;3.43;90.66113;928.495;;;;
2022/01/05 12:13:53;;;;;;;1.1;1;;;;;;;3.24;91.53027;928.5278;;;;
2022/01/05 12:16:24;;;;;;;1.2;1.1;;;;;;;3.14;91.95703;928.5112;;;;
2022/01/05 12:18:49;;;;;;;2.5;1.3;;;;;;;2.71;93.32129;928.5446;;;;
2022/01/05 12:21:14;;;;;;;1.5;1.2;;;;;;;2.79;93.8418;928.5902;;;;
2022/01/05 12:23:43;;;;;;;1.5;1.4;;;;;;;2.85;93.4541;928.592;;;;
2022/01/05 12:26:09;;;;;;;1.1;0.9;;;;;;;2.97;93.18652;928.5865;;;;
2022/01/05 12:28:35;;;;;;;0.8;0.8;;;;;;;3.04;92.37207;928.5798;;;;
2022/01/05 12:31:01;;;;;;;1.7;1.2;;;;;;;3.02;92.18848;928.6462;;;;
2022/01/05 12:33:25;;;;;;;1.1;1;;;;;;;2.95;91.71289;928.6145;;;;
2022/01/05 12:35:50;;;;;;;2.6;1.5;;;;;;;3.09;91.6543;928.6903;;;;
2022/01/05 12:38:17;;;;;;;3.3;2.2;;;;;;;2.95;91.86816;928.7308;;;;
2022/01/05 12:40:45;;;;;;;2.9;1.8;;;;;;;2.87;92.22266;928.8304;;;;
2022/01/05 12:43:07;;;;;;;1.9;1.4;;;;;;;3.01;91.5;928.8095;;;;
2022/01/05 12:45:32;;;;;;;3.6;2.1;;;;;;;2.92;91.61719;928.7957;;;;
2022/01/05 12:47:58;;;;;;;1.3;1.2;;;;;;;3.13;91.6709;928.7185;;;;
2022/01/05 12:50:27;;;;;;;0.8;0.8;;;;;;;3.19;90.75488;928.7269;;;;
2022/01/05 12:52:55;;;;;;;1.1;0.8;;;;;;;3.06;88.71777;928.7029;;;;
2022/01/05 12:55:20;;;;;;;0.8;0.8;;;;;;;3.05;89.08594;928.775;;;;
2022/01/05 12:57:48;;;;;;;1.1;1;;;;;;;2.9;89.95313;928.8219;;;;
2022/01/05 13:00:13;;;;;;;1.1;1;;;;;;;3;89.49219;928.8338;;;;
2022/01/05 13:02:43;;;;;;;0.9;0.9;;;;;;;2.78;88.40332;928.8958;;;;
2022/01/05 13:05:08;;;;;;;0.8;0.8;;;;;;;2.96;88.5957;928.8859;;;;
2022/01/05 13:07:39;;;;;;;0.7;0.6;;;;;;;2.84;87.18066;928.8918;;;;
2022/01/05 13:09:59;;;;;;;0.5;0.5;;;;;;;2.93;85.71875;928.8649;;;;
2022/01/05 13:12:27;;;;;;;0.7;0.6;;;;;;;2.79;82.78516;928.9401;;;;
2022/01/05 13:14:52;;;;;;;0.4;0.4;;;;;;;2.69;82.10645;928.919;;;;
2022/01/05 13:17:38;;;;;;;0.6;0.6;;;;;;;2.62;80.76953;928.966;;;;
2022/01/05 13:20:06;;;;;;;0.9;0.6;;;;;;;2.67;80.4082;929.0276;;;;
2022/01/05 13:22:29;;;;;;;0.7;0.3;;;;;;;2.63;80.22266;929.0997;;;;
2022/01/05 13:24:55;;;;;;;0.4;0.4;;;;;;;2.7;81.36621;929.0675;;;;
2022/01/05 13:27:23;;;;;;;0.6;0.6;;;;;;;2.69;80.46777;929.2182;;;;
2022/01/05 13:29:48;;;;;;;0.4;0.4;;;;;;;2.61;80.68945;929.2957;;;;
2022/01/05 13:32:13;;;;;;;0.3;0.3;;;;;;;2.42;81.45898;929.2751;;;;
2022/01/05 13:34:40;;;;;;;0.3;0.3;;;;;;;2.25;80.95703;929.3459;;;;
2022/01/05 13:37:04;;;;;;;0.5;0.5;;;;;;;2.14;82.38086;929.4755;;;;
2022/01/05 13:39:32;;;;;;;0.4;0.4;;;;;;;2.18;81.57031;929.4924;;;;
2022/01/05 13:41:59;;;;;;;0.9;0.3;;;;;;;2.3;79.60059;929.5436;;;;
2022/01/05 13:44:24;;;;;;;1.3;0.4;;;;;;;2.56;79.25586;929.7178;;;;
2022/01/05 13:46:54;;;;;;;0.4;0.4;;;;;;;2.65;78.04004;929.7762;;;;
2022/01/05 13:49:19;;;;;;;3.2;2.2;;;;;;;2.8;81.69043;929.7908;;;;
2022/01/05 13:51:48;;;;;;;1.6;1.4;;;;;;;2.81;80.70508;929.8337;;;;
2022/01/05 13:54:13;;;;;;;1.2;0.9;;;;;;;2.61;81.61816;929.7773;;;;
2022/01/05 13:56:42;;;;;;;3.3;1.6;;;;;;;2.73;81.64258;929.8582;;;;
2022/01/05 13:59:08;;;;;;;0.9;0.8;;;;;;;2.67;82.86523;929.8757;;;;
2022/01/05 14:01:33;;;;;;;1.4;0.8;;;;;;;;;;;;;
2022/01/05 14:04:00;;;;;;;5.8;3.9;;;;;;;;;;;;;
2022/01/05 14:06:25;;;;;;;3.4;2.3;;;;;;;;;;;;;
2022/01/05 14:08:50;;;;;;;3.9;2.6;;;;;;;;;;;;;
2022/01/05 14:11:16;;;;;;;2.7;1.3;;;;;;;;;;;;;
2022/01/05 14:13:41;;;;;;;2.2;1.2;;;;;;;;;;;;;
2022/01/05 14:16:07;;;;;;;2.4;2.2;;;;;;;;;;;;;
2022/01/05 14:18:31;;;;;;;1.3;1.2;;;;;;;;;;;;;
2022/01/05 14:20:56;;;;;;;1.3;1.1;;;;;;;;;;;;;
2022/01/05 14:23:22;;;;;;;1.5;1;;;;;;;;;;;;;
2022/01/05 14:25:49;;;;;;;6.3;5;;;;;;;;;;;;;
2022/01/05 14:28:14;;;;;;;7.9;6.1;;;;;;;;;;;;;
2022/01/05 14:30:39;;;;;;;3.2;2.3;;;;;;;;;;;;;
2022/01/05 14:33:05;;;;;;;2.1;1;;;;;;;;;;;;;
2022/01/05 14:35:29;;;;;;;0.8;0.5;;;;;;;;;;;;;
2022/01/05 14:37:54;;;;;;;1;0.7;;;;;;;;;;;;;
2022/01/05 14:40:19;;;;;;;1.1;0.7;;;;;;;;;;;;;
2022/01/05 14:42:45;;;;;;;1.2;1;;;;;;;;;;;;;
2022/01/05 14:45:10;;;;;;;3.8;2.6;;;;;;;;;;;;;
2022/01/05 14:47:35;;;;;;;1.5;1.2;;;;;;;;;;;;;
2022/01/05 14:50:00;;;;;;;1.8;1.2;;;;;;;;;;;;;
2022/01/05 14:52:26;;;;;;;2.4;1;;;;;;;;;;;;;
2022/01/05 14:54:51;;;;;;;1.2;0.8;;;;;;;;;;;;;
2022/01/05 14:57:16;;;;;;;1.1;0.8;;;;;;;;;;;;;
2022/01/05 14:59:42;;;;;;;1.4;1.1;;;;;;;;;;;;;
2022/01/05 15:02:08;;;;;;;1.8;1;;;;;;;;;;;;;
2022/01/05 15:04:34;;;;;;;1.2;1.1;;;;;;;;;;;;;
2022/01/05 15:06:59;;;;;;;2;1.6;;;;;;;;;;;;;
2022/01/05 15:09:26;;;;;;;3.1;1.8;;;;;;;;;;;;;
2022/01/05 15:11:52;;;;;;;2.4;1.6;;;;;;;;;;;;;
2022/01/05 15:14:16;;;;;;;1.6;1.2;;;;;;;;;;;;;
2022/01/05 15:16:41;;;;;;;1.3;0.9;;;;;;;;;;;;;
2022/01/05 15:19:07;;;;;;;1.2;0.8;;;;;;;;;;;;;
2022/01/05 15:21:32;;;;;;;1.8;1.5;;;;;;;;;;;;;
2022/01/05 15:23:57;;;;;;;1.7;0.9;;;;;;;;;;;;;
2022/01/05 15:26:23;;;;;;;2.3;1.4;;;;;;;;;;;;;
2022/01/05 15:28:49;;;;;;;2.1;1.3;;;;;;;;;;;;;
2022/01/05 15:31:14;;;;;;;2;1;;;;;;;;;;;;;
2022/01/05 15:33:40;;;;;;;2.1;0.7;;;;;;;;;;;;;
2022/01/05 15:36:05;;;;;;;2;1.6;;;;;;;;;;;;;
2022/01/05 15:38:32;;;;;;;1.9;1.5;;;;;;;;;;;;;
2022/01/05 15:40:57;;;;;;;1;0.8;;;;;;;;;;;;;
2022/01/05 15:43:23;;;;;;;1.5;0.9;;;;;;;;;;;;;
2022/01/05 15:45:48;;;;;;;4.1;2.4;;;;;;;;;;;;;
2022/01/05 15:48:14;;;;;;;1.4;1;;;;;;;;;;;;;
2022/01/05 15:50:39;;;;;;;1.8;1.3;;;;;;;;;;;;;
2022/01/05 15:53:05;;;;;;;2.1;1.3;;;;;;;;;;;;;
2022/01/05 15:55:35;;;;;;;1.8;1.1;;;;;;;;;;;;;
2022/01/05 15:58:00;;;;;;;2.4;1.8;;;;;;;;;;;;;
2022/01/05 16:02:45;;;;;;;15.3;8;;;;;;;;;;;;;
2022/01/05 16:05:14;;;;;;;10.5;5.9;;;;;;;;;;;;;
2022/01/05 16:07:39;;;;;;;8.7;5.2;;;;;;;;;;;;;
2022/01/05 16:10:04;;;;;;;4.1;2.8;;;;;;;;;;;;;
2022/01/05 16:12:29;;;;;;;4.5;2.4;;;;;;;;;;;;;
2022/01/05 16:14:55;;;;;;;1.5;1.1;;;;;;;;;;;;;
2022/01/05 16:17:20;;;;;;;2;1.4;;;;;;;;;;;;;
2022/01/05 16:19:45;;;;;;;1.9;1.3;;;;;;;;;;;;;
2022/01/05 16:22:10;;;;;;;14.2;7.7;;;;;;;;;;;;;
2022/01/05 16:24:36;;;;;;;4.8;2.6;;;;;;;;;;;;;
2022/01/05 16:27:02;;;;;;;2;1.8;;;;;;;;;;;;;
2022/01/05 16:29:27;;;;;;;1.8;1.4;;;;;;;;;;;;;
2022/01/05 16:31:53;;;;;;;2.5;1.8;;;;;;;;;;;;;
2022/01/05 16:34:18;;;;;;;4.3;3.8;;;;;;;;;;;;;